createdAt,value
2022-09-10T00:00:04.883Z,20.83
2022-09-10T00:02:33.593Z,20.76
2022-09-10T00:05:02.414Z,20.78
2022-09-10T00:07:32.590Z,20.77
2022-09-10T00:10:00.495Z,20.68
2022-09-10T00:12:29.553Z,20.61
2022-09-10T00:14:57.127Z,20.59
2022-09-10T00:17:25.244Z,20.56
2022-09-10T00:19:52.827Z,20.50
2022-09-10T00:22:22.470Z,20.46
2022-09-10T00:24:50.071Z,20.47
2022-09-10T00:27:17.772Z,20.50
2022-09-10T00:29:46.832Z,20.50
2022-09-10T00:32:14.598Z,20.27
2022-09-10T00:34:42.203Z,20.54
2022-09-10T00:37:09.951Z,20.53
2022-09-10T00:39:37.578Z,20.58
2022-09-10T00:42:05.877Z,20.54
2022-09-10T00:45:08.442Z,20.63
2022-09-10T00:47:37.205Z,20.40
2022-09-10T00:50:07.907Z,20.52
2022-09-10T00:52:39.645Z,20.51
2022-09-10T00:55:08.802Z,20.48
2022-09-10T00:57:36.437Z,20.33
2022-09-10T01:00:10.680Z,20.48
2022-09-10T01:02:38.443Z,20.52
2022-09-10T01:05:07.164Z,19.97
2022-09-10T01:07:35.238Z,20.53
2022-09-10T01:10:06.973Z,20.56
2022-09-10T01:12:51.371Z,20.20
2022-09-10T01:15:23.075Z,20.34
2022-09-10T01:17:59.487Z,20.54
2022-09-10T01:20:48.214Z,20.58
2022-09-10T01:23:34.924Z,20.56
2022-09-10T01:26:07.500Z,20.53
2022-09-10T01:28:39.484Z,20.57
2022-09-10T01:31:11.942Z,20.31
2022-09-10T01:33:43.002Z,20.65
2022-09-10T01:36:13.075Z,20.70
2022-09-10T01:38:41.854Z,20.70
2022-09-10T01:41:10.157Z,20.68
2022-09-10T01:43:39.230Z,20.66
2022-09-10T01:46:19.163Z,20.63
2022-09-10T01:49:13.840Z,20.65
2022-09-10T01:51:50.634Z,20.58
2022-09-10T01:54:24.852Z,20.54
2022-09-10T01:56:54.964Z,20.51
2022-09-10T01:59:30.335Z,20.45
2022-09-10T02:02:01.272Z,20.40
2022-09-10T02:04:29.032Z,20.11
2022-09-10T02:06:56.713Z,20.36
2022-09-10T02:09:24.504Z,20.28
2022-09-10T02:11:53.501Z,20.26
2022-09-10T02:14:22.061Z,20.24
2022-09-10T02:16:52.861Z,20.21
2022-09-10T02:19:20.524Z,20.23
2022-09-10T02:21:48.187Z,20.22
2022-09-10T02:24:15.891Z,20.21
2022-09-10T02:26:44.312Z,20.19
2022-09-10T02:29:13.674Z,20.20
2022-09-10T02:31:41.415Z,20.15
2022-09-10T02:34:10.663Z,20.19
2022-09-10T02:36:39.590Z,20.16
2022-09-10T02:39:08.063Z,20.18
2022-09-10T02:41:35.750Z,20.19
2022-09-10T02:44:03.986Z,20.18
2022-09-10T02:46:31.804Z,19.71
2022-09-10T02:48:59.488Z,20.17
2022-09-10T02:51:28.606Z,20.17
2022-09-10T02:53:56.433Z,20.15
2022-09-10T02:56:24.605Z,20.12
2022-09-10T02:58:52.222Z,20.14
2022-09-10T03:01:21.597Z,20.08
2022-09-10T03:03:50.244Z,20.17
2022-09-10T03:06:19.360Z,20.18
2022-09-10T03:08:48.558Z,20.16
2022-09-10T03:11:16.354Z,20.16
2022-09-10T03:13:45.920Z,20.11
2022-09-10T03:16:13.773Z,20.08
2022-09-10T03:18:41.916Z,19.39
2022-09-10T03:21:10.701Z,20.00
2022-09-10T03:23:40.315Z,19.93
2022-09-10T03:26:10.197Z,19.91
2022-09-10T03:28:38.610Z,19.96
2022-09-10T03:31:06.692Z,19.88
2022-09-10T03:33:34.412Z,19.89
2022-09-10T03:36:02.659Z,19.88
2022-09-10T03:38:30.291Z,19.90
2022-09-10T03:40:58.107Z,19.90
2022-09-10T03:43:27.270Z,19.83
2022-09-10T03:45:55.308Z,19.87
2022-09-10T03:48:22.956Z,19.88
2022-09-10T03:50:50.900Z,19.88
2022-09-10T03:53:19.051Z,19.88
2022-09-10T03:55:47.171Z,19.76
2022-09-10T03:58:14.841Z,19.94
2022-09-10T04:00:43.932Z,19.96
2022-09-10T04:03:12.002Z,20.00
2022-09-10T04:05:40.958Z,20.03
2022-09-10T04:08:09.855Z,20.06
2022-09-10T04:10:37.667Z,20.06
2022-09-10T04:13:05.336Z,20.03
2022-09-10T04:15:33.113Z,20.07
2022-09-10T04:18:02.061Z,20.06
2022-09-10T04:20:29.769Z,20.06
2022-09-10T04:22:57.639Z,20.05
2022-09-10T04:25:25.408Z,20.07
2022-09-10T04:27:53.005Z,20.07
2022-09-10T04:30:20.750Z,20.08
2022-09-10T04:32:49.613Z,20.09
2022-09-10T04:35:20.287Z,20.06
2022-09-10T04:37:47.873Z,20.05
2022-09-10T04:40:15.666Z,19.99
2022-09-10T04:42:43.401Z,20.10
2022-09-10T04:45:11.590Z,20.10
2022-09-10T04:47:39.553Z,20.11
2022-09-10T04:50:08.293Z,20.09
2022-09-10T04:52:37.217Z,19.94
2022-09-10T04:55:05.607Z,20.09
2022-09-10T04:57:33.225Z,20.05
2022-09-10T05:00:01.351Z,20.04
2022-09-10T05:02:29.172Z,20.05
2022-09-10T05:04:56.929Z,20.06
2022-09-10T05:07:24.561Z,20.10
2022-09-10T05:09:53.753Z,19.82
2022-09-10T05:12:22.888Z,20.12
2022-09-10T05:14:50.653Z,20.12
2022-09-10T05:17:18.237Z,20.09
2022-09-10T05:19:45.983Z,20.11
2022-09-10T05:22:13.641Z,20.11
2022-09-10T05:24:44.604Z,20.12
2022-09-10T05:27:13.574Z,20.15
2022-09-10T05:29:41.384Z,20.17
2022-09-10T05:32:09.824Z,20.18
2022-09-10T05:34:39.941Z,20.19
2022-09-10T05:37:08.715Z,20.23
2022-09-10T05:39:36.588Z,20.26
2022-09-10T05:42:04.753Z,20.30
2022-09-10T05:44:34.278Z,20.32
2022-09-10T05:47:02.152Z,20.35
2022-09-10T05:49:30.370Z,20.28
2022-09-10T05:51:58.513Z,20.35
2022-09-10T05:54:26.372Z,20.32
2022-09-10T05:56:54.221Z,20.33
2022-09-10T05:59:22.193Z,20.20
2022-09-10T06:01:52.051Z,20.35
2022-09-10T06:04:20.313Z,20.33
2022-09-10T06:06:48.310Z,20.33
2022-09-10T06:09:17.143Z,20.34
2022-09-10T06:11:44.875Z,20.37
2022-09-10T06:14:14.855Z,20.35
2022-09-10T06:16:42.735Z,20.37
2022-09-10T06:19:12.504Z,20.38
2022-09-10T06:21:40.391Z,20.36
2022-09-10T06:24:08.602Z,20.37
2022-09-10T06:26:37.133Z,20.39
2022-09-10T06:29:05.221Z,20.42
2022-09-10T06:31:34.660Z,20.44
2022-09-10T06:34:03.182Z,20.47
2022-09-10T06:36:33.254Z,20.53
2022-09-10T06:39:03.294Z,20.52
2022-09-10T06:41:31.197Z,20.57
2022-09-10T06:43:59.301Z,20.65
2022-09-10T06:49:15.816Z,20.78
2022-09-10T06:51:45.009Z,20.84
2022-09-10T06:54:13.276Z,20.93
2022-09-10T06:56:42.041Z,20.74
2022-09-10T06:59:10.063Z,20.97
2022-09-10T07:01:37.906Z,20.92
2022-09-10T07:04:06.862Z,20.87
2022-09-10T07:06:35.616Z,20.97
2022-09-10T07:09:05.438Z,20.93
2022-09-10T07:11:35.938Z,20.94
2022-09-10T07:14:07.315Z,20.93
2022-09-10T07:16:35.585Z,20.90
2022-09-10T07:19:05.367Z,20.93
2022-09-10T07:21:36.862Z,20.93
2022-09-10T07:24:06.343Z,20.93
2022-09-10T07:26:34.156Z,20.83
2022-09-10T07:29:01.757Z,20.92
2022-09-10T07:31:30.372Z,20.89
2022-09-10T07:33:58.637Z,20.90
2022-09-10T07:36:26.396Z,20.91
2022-09-10T07:38:54.698Z,20.98
2022-09-10T07:41:23.724Z,21.07
2022-09-10T07:43:54.047Z,20.95
2022-09-10T07:46:21.835Z,21.21
2022-09-10T07:48:49.838Z,21.29
2022-09-10T07:51:19.120Z,21.26
2022-09-10T07:53:50.523Z,21.33
2022-09-10T07:56:18.672Z,21.40
2022-09-10T07:58:47.650Z,21.41
2022-09-10T08:01:15.826Z,21.47
2022-09-10T08:03:43.495Z,21.54
2022-09-10T08:06:11.224Z,21.40
2022-09-10T08:08:39.834Z,21.48
2022-09-10T08:11:11.723Z,21.35
2022-09-10T08:13:40.258Z,21.32
2022-09-10T08:16:10.410Z,21.35
2022-09-10T08:18:38.443Z,21.70
2022-09-10T08:21:07.547Z,21.69
2022-09-10T08:23:35.201Z,21.63
2022-09-10T08:26:04.427Z,21.67
2022-09-10T08:28:32.155Z,21.66
2022-09-10T08:31:01.786Z,21.67
2022-09-10T08:33:32.706Z,21.67
2022-09-10T08:36:00.646Z,21.62
2022-09-10T08:38:31.000Z,21.60
2022-09-10T08:41:00.020Z,21.46
2022-09-10T08:43:31.593Z,21.56
2022-09-10T08:45:59.772Z,21.46
2022-09-10T08:48:27.693Z,21.51
2022-09-10T08:50:57.814Z,21.62
2022-09-10T08:53:26.975Z,21.68
2022-09-10T08:55:57.705Z,21.75
2022-09-10T08:58:26.538Z,21.83
2022-09-10T09:00:55.021Z,21.92
2022-09-10T09:03:23.921Z,22.18
2022-09-10T09:05:53.809Z,22.52
2022-09-10T09:08:25.755Z,22.87
2022-09-10T09:10:56.127Z,23.24
2022-09-10T09:13:41.200Z,23.75
2022-09-10T09:16:24.643Z,24.13
2022-09-10T09:19:02.317Z,24.29
2022-09-10T09:21:35.169Z,24.66
2022-09-10T09:24:20.046Z,24.82
2022-09-10T09:26:48.081Z,24.87
2022-09-10T09:29:21.052Z,25.06
2022-09-10T09:31:50.982Z,25.23
2022-09-10T09:34:29.767Z,25.49
2022-09-10T09:37:03.282Z,26.05
2022-09-10T09:39:37.407Z,25.89
2022-09-10T09:42:08.028Z,25.37
2022-09-10T09:44:38.816Z,25.02
2022-09-10T09:47:06.513Z,24.62
2022-09-10T09:49:34.717Z,24.26
2022-09-10T09:52:03.045Z,23.98
2022-09-10T09:55:03.093Z,23.63
2022-09-10T09:57:22.320Z,23.24
2022-09-10T09:59:50.403Z,23.02
2022-09-10T10:02:18.798Z,22.77
2022-09-10T10:04:55.094Z,22.54
2022-09-10T10:07:26.655Z,22.33
2022-09-10T10:09:55.753Z,22.08
2022-09-10T10:12:23.533Z,21.92
2022-09-10T10:14:51.600Z,21.76
2022-09-10T10:17:27.339Z,21.69
2022-09-10T10:20:08.959Z,21.64
2022-09-10T10:22:36.939Z,21.66
2022-09-10T10:25:07.947Z,21.68
2022-09-10T10:27:36.610Z,21.81
2022-09-10T10:30:22.279Z,21.60
2022-09-10T10:32:53.098Z,21.66
2022-09-10T10:35:27.004Z,21.76
2022-09-10T10:38:04.046Z,21.56
2022-09-10T10:40:34.874Z,21.29
2022-09-10T10:43:07.994Z,21.37
2022-09-10T10:45:38.164Z,21.27
2022-09-10T10:48:11.596Z,21.08
2022-09-10T10:50:45.818Z,20.97
2022-09-10T10:54:03.599Z,20.67
2022-09-10T10:56:35.986Z,20.20
2022-09-10T10:59:10.515Z,20.24
2022-09-10T11:01:39.534Z,20.19
2022-09-10T11:04:19.602Z,20.18
2022-09-10T11:06:49.408Z,20.11
2022-09-10T11:09:19.453Z,20.14
2022-09-10T11:11:52.086Z,20.17
2022-09-10T11:14:21.925Z,20.04
2022-09-10T11:16:55.394Z,20.16
2022-09-10T11:19:28.281Z,20.20
2022-09-10T11:21:58.690Z,20.25
2022-09-10T11:24:27.963Z,20.26
2022-09-10T11:27:00.628Z,20.33
2022-09-10T11:29:35.098Z,20.37
2022-09-10T11:32:06.243Z,20.38
2022-09-10T11:34:36.347Z,20.51
2022-09-10T11:37:06.312Z,20.46
2022-09-10T11:39:35.438Z,20.60
2022-09-10T11:42:08.280Z,20.63
2022-09-10T11:44:42.010Z,20.07
2022-09-10T11:47:14.313Z,20.63
2022-09-10T11:49:44.513Z,20.75
2022-09-10T11:52:12.428Z,20.81
2022-09-10T11:54:40.338Z,20.47
2022-09-10T11:57:11.371Z,20.76
2022-09-10T11:59:56.010Z,20.80
2022-09-10T12:02:41.595Z,20.83
2022-09-10T12:05:16.442Z,20.81
2022-09-10T12:07:46.698Z,20.90
2022-09-10T12:10:19.913Z,20.98
2022-09-10T12:12:50.130Z,21.06
2022-09-10T12:15:19.833Z,21.10
2022-09-10T12:17:49.314Z,21.15
2022-09-10T12:20:19.235Z,20.97
2022-09-10T12:22:48.137Z,21.39
2022-09-10T12:25:29.279Z,21.45
2022-09-10T12:28:01.278Z,21.47
2022-09-10T12:31:02.881Z,21.55
2022-09-10T12:34:12.369Z,21.56
2022-09-10T12:37:17.095Z,21.55
2022-09-10T12:39:45.468Z,21.51
2022-09-10T12:42:30.695Z,21.48
2022-09-10T12:44:59.772Z,21.59
2022-09-10T12:47:50.199Z,21.86
2022-09-10T12:50:32.224Z,22.09
2022-09-10T12:53:21.038Z,22.31
2022-09-10T12:55:53.957Z,22.41
2022-09-10T12:58:25.100Z,22.61
2022-09-10T13:01:05.977Z,22.81
2022-09-10T13:03:33.812Z,22.99
2022-09-10T13:06:04.368Z,22.82
2022-09-10T13:08:33.655Z,23.07
2022-09-10T13:32:40.956Z,22.48
2022-09-10T13:39:51.303Z,23.15
2022-09-10T13:43:13.990Z,23.04
2022-09-10T13:46:22.009Z,23.25
2022-09-10T13:52:26.739Z,22.44
2022-09-10T13:55:26.361Z,22.80
2022-09-10T13:58:31.426Z,20.79
2022-09-10T14:01:28.424Z,22.84
2022-09-10T14:03:58.353Z,23.49
2022-09-10T14:06:26.538Z,23.21
2022-09-10T14:08:55.729Z,23.27
2022-09-10T14:11:24.972Z,22.88
2022-09-10T14:13:56.147Z,22.48
2022-09-10T14:16:30.108Z,22.96
2022-09-10T14:19:01.489Z,23.42
2022-09-10T14:21:30.145Z,23.55
2022-09-10T14:24:02.502Z,23.36
2022-09-10T14:26:31.831Z,23.15
2022-09-10T14:29:01.303Z,23.10
2022-09-10T14:31:35.699Z,22.72
2022-09-10T14:34:27.968Z,23.69
2022-09-10T14:36:56.169Z,23.55
2022-09-10T14:39:24.057Z,22.58
2022-09-10T14:42:10.991Z,23.32
2022-09-10T14:44:42.130Z,22.77
2022-09-10T14:47:14.787Z,22.40
2022-09-10T14:49:47.302Z,21.76
2022-09-10T14:52:15.649Z,23.02
2022-09-10T14:54:43.724Z,23.30
2022-09-10T14:57:14.919Z,22.63
2022-09-10T14:59:44.020Z,22.22
2022-09-10T15:02:17.004Z,22.19
2022-09-10T15:04:47.777Z,22.33
2022-09-10T15:36:51.927Z,21.32
2022-09-10T15:48:31.550Z,23.37
2022-09-10T16:20:39.879Z,23.28
2022-09-10T16:23:09.084Z,22.52
2022-09-10T16:25:37.258Z,23.05
2022-09-10T16:28:05.969Z,22.71
2022-09-10T16:30:35.062Z,22.43
2022-09-10T16:33:03.850Z,22.61
2022-09-10T16:35:33.218Z,22.46
2022-09-10T16:38:02.850Z,22.02
2022-09-10T16:40:31.593Z,22.43
2022-09-10T16:43:00.319Z,22.00
2022-09-10T16:45:28.393Z,22.83
2022-09-10T16:48:03.448Z,22.10
2022-09-10T16:50:33.851Z,22.74
2022-09-10T16:53:04.028Z,22.68
2022-09-10T16:55:32.690Z,22.00
2022-09-10T16:58:01.463Z,22.14
2022-09-10T17:00:29.864Z,22.28
2022-09-10T17:02:59.177Z,22.68
2022-09-10T17:05:26.796Z,22.70
2022-09-10T17:07:54.740Z,22.72
2022-09-10T17:10:25.283Z,22.72
2022-09-10T17:12:54.705Z,22.56
2022-09-10T17:15:23.327Z,22.76
2022-09-10T17:17:52.049Z,21.53
2022-09-10T17:20:20.122Z,22.55
2022-09-10T17:22:48.029Z,22.69
2022-09-10T17:25:16.686Z,22.05
2022-09-10T17:27:45.802Z,21.92
2022-09-10T17:30:14.006Z,22.40
2022-09-10T17:32:41.685Z,22.57
2022-09-10T17:35:12.093Z,22.40
2022-09-10T17:37:40.665Z,22.53
2022-09-10T17:40:09.467Z,22.24
2022-09-10T17:42:37.290Z,22.42
2022-09-10T17:45:07.484Z,22.45
2022-09-10T17:47:35.187Z,21.89
2022-09-10T17:50:02.835Z,22.42
2022-09-10T17:52:30.576Z,22.05
2022-09-10T17:54:58.179Z,22.37
2022-09-10T17:57:25.984Z,21.73
2022-09-10T17:59:54.494Z,22.32
2022-09-10T18:02:23.635Z,22.29
2022-09-10T18:04:51.389Z,21.51
2022-09-10T18:07:19.168Z,22.26
2022-09-10T18:09:47.650Z,22.27
2022-09-10T18:12:16.158Z,22.26
2022-09-10T18:14:44.210Z,22.06
2022-09-10T18:17:13.036Z,22.25
2022-09-10T18:19:43.276Z,22.09
2022-09-10T18:22:11.494Z,22.10
2022-09-10T18:24:40.425Z,20.46
2022-09-10T18:27:08.066Z,22.24
2022-09-10T18:29:38.798Z,22.22
2022-09-10T18:32:07.344Z,21.69
2022-09-10T18:34:39.784Z,22.23
2022-09-10T18:37:09.141Z,22.22
2022-09-10T18:39:36.969Z,22.23
2022-09-10T18:42:06.182Z,21.76
2022-09-10T18:44:36.418Z,21.40
2022-09-10T18:47:05.597Z,22.09
2022-09-10T18:49:33.505Z,22.17
2022-09-10T18:52:01.200Z,22.15
2022-09-10T18:54:32.653Z,22.14
2022-09-10T18:57:01.220Z,22.14
2022-09-10T18:59:28.930Z,21.86
2022-09-10T19:01:57.281Z,21.78
2022-09-10T19:04:26.613Z,22.14
2022-09-10T19:06:54.850Z,22.15
2022-09-10T19:09:23.551Z,21.72
2022-09-10T19:11:54.270Z,21.68
2022-09-10T19:14:23.410Z,20.53
2022-09-10T19:16:51.981Z,21.41
2022-09-10T19:19:22.227Z,21.73
2022-09-10T19:21:51.312Z,20.89
2022-09-10T19:24:32.818Z,20.14
2022-09-10T19:27:07.513Z,20.27
2022-09-10T19:29:35.682Z,21.56
2022-09-10T19:32:04.380Z,20.98
2022-09-10T19:34:32.456Z,19.56
2022-09-10T19:37:00.592Z,22.08
2022-09-10T19:39:28.492Z,20.61
2022-09-10T19:41:56.574Z,21.30
2022-09-10T19:44:26.039Z,20.28
2022-09-10T19:46:53.917Z,19.07
2022-09-10T19:49:22.323Z,22.10
2022-09-10T19:51:50.132Z,20.71
2022-09-10T19:54:18.536Z,19.81
2022-09-10T19:56:50.739Z,21.30
2022-09-10T19:59:18.958Z,20.22
2022-09-10T20:01:50.138Z,20.65
2022-09-10T20:04:18.621Z,21.01
2022-09-10T20:06:47.816Z,21.37
2022-09-10T20:09:16.815Z,20.64
2022-09-10T20:11:45.837Z,20.40
2022-09-10T20:14:14.560Z,21.98
2022-09-10T20:16:43.791Z,19.13
2022-09-10T20:19:14.365Z,21.40
2022-09-10T20:21:42.587Z,20.50
2022-09-10T20:24:10.804Z,21.07
2022-09-10T20:26:41.218Z,21.34
2022-09-10T20:29:11.358Z,21.20
2022-09-10T20:31:41.219Z,20.42
2022-09-10T20:34:11.352Z,19.34
2022-09-10T20:36:42.344Z,19.91
2022-09-10T20:39:11.321Z,20.37
2022-09-10T20:41:40.100Z,21.64
2022-09-10T20:44:07.977Z,19.82
2022-09-10T20:46:35.810Z,19.21
2022-09-10T20:49:04.358Z,18.88
2022-09-10T20:51:33.413Z,21.46
2022-09-10T20:54:02.982Z,18.90
2022-09-10T20:56:30.884Z,19.52
2022-09-10T20:58:59.392Z,18.89
2022-09-10T21:01:28.291Z,19.46
2022-09-10T21:03:59.176Z,20.06
2022-09-10T21:06:28.195Z,18.55
2022-09-10T21:08:56.534Z,19.42
2022-09-10T21:11:29.385Z,20.25
2022-09-10T21:13:58.071Z,20.43
2022-09-10T21:16:27.269Z,21.33
2022-09-10T21:18:56.602Z,19.51
2022-09-10T21:21:25.864Z,20.32
2022-09-10T21:23:54.629Z,19.94
2022-09-10T21:26:23.449Z,18.23
2022-09-10T21:28:53.261Z,20.70
2022-09-10T21:31:21.359Z,21.37
2022-09-10T21:33:50.322Z,20.50
2022-09-10T21:36:19.135Z,20.72
2022-09-10T21:38:48.210Z,20.32
2022-09-10T21:41:17.027Z,21.00
2022-09-10T21:43:45.624Z,19.53
2022-09-10T21:46:15.462Z,19.98
2022-09-10T21:48:44.326Z,18.86
2022-09-10T21:51:13.758Z,19.50
2022-09-10T21:53:41.740Z,21.18
2022-09-10T21:56:09.823Z,19.62
2022-09-10T21:58:38.015Z,21.41
2022-09-10T22:01:10.448Z,20.39
2022-09-10T22:03:39.865Z,19.60
2022-09-10T22:06:09.282Z,21.38
2022-09-10T22:08:37.618Z,20.36
2022-09-10T22:11:07.723Z,19.05
2022-09-10T22:13:38.104Z,19.66
2022-09-10T22:16:06.922Z,18.89
2022-09-10T22:18:35.423Z,19.26
2022-09-10T22:21:04.885Z,19.19
2022-09-10T22:23:40.731Z,19.36
2022-09-10T22:26:09.680Z,20.02
2022-09-10T22:28:38.648Z,20.20
2022-09-10T22:31:10.146Z,20.00
2022-09-10T22:33:39.291Z,20.18
2022-09-10T22:36:15.496Z,20.98
2022-09-10T22:38:43.734Z,18.26
2022-09-10T22:41:14.470Z,20.12
2022-09-10T22:43:42.892Z,18.52
2022-09-10T22:46:11.644Z,20.80
2022-09-10T22:48:42.977Z,20.74
2022-09-10T22:51:12.082Z,18.85
2022-09-10T22:53:50.042Z,18.80
2022-09-10T22:56:19.531Z,17.93
2022-09-10T22:58:51.795Z,20.66
2022-09-10T23:01:21.480Z,20.12
2022-09-10T23:03:49.475Z,20.06
2022-09-10T23:06:18.203Z,18.69
2022-09-10T23:08:48.707Z,18.84
2022-09-10T23:11:17.741Z,20.28
2022-09-10T23:13:46.216Z,19.94
2022-09-10T23:16:15.302Z,20.01
2022-09-10T23:18:43.524Z,20.63
2022-09-10T23:21:12.049Z,20.63
2022-09-10T23:23:40.297Z,17.82
2022-09-10T23:26:10.927Z,18.79
2022-09-10T23:28:42.224Z,20.13
2022-09-10T23:31:13.564Z,20.10
2022-09-10T23:33:42.467Z,18.53
2022-09-10T23:36:11.666Z,18.41
2022-09-10T23:38:39.850Z,18.87
2022-09-10T23:41:09.669Z,19.42
2022-09-10T23:43:37.612Z,20.06
2022-09-10T23:46:05.652Z,17.97
2022-09-10T23:48:35.482Z,21.02
2022-09-10T23:51:03.553Z,20.43
2022-09-10T23:53:32.062Z,19.19
2022-09-10T23:56:00.248Z,20.34
2022-09-10T23:58:29.662Z,18.15
